Time;durP1;ratioP1;P1;durP2;ratioP2;P2;SDS_P1;SDS_P2;PMS_P1;PMS_P2;Temp;Humidity;BMP_temperature;BMP_pressure;BME280_temperature;BME280_humidity;BME280_pressure;Samples;Min_cycle;Max_cycle;Signal;HPM_P1;HPM_P2
2021/07/25 05:18:45;;;;;;;0.45;0.45;;;;;;;22.29;60.41;98965.63;5080766;27;2090631;-89
2021/07/25 05:21:29;;;;;;;1.35;1.25;;;;;;;22.72;58.92;98958.47;5113998;28;20462;-89
2021/07/25 05:23:57;;;;;;;0.80;0.80;;;;;;;23.04;55.49;98946.91;5113376;28;20053;-90
2021/07/25 05:26:28;;;;;;;0.55;0.55;;;;;;;23.33;53.38;98923.00;5131357;28;20035;-89
2021/07/25 05:28:56;;;;;;;0.60;0.60;;;;;;;24.00;52.14;98973.47;5113296;28;20024;-88
2021/07/25 05:31:23;;;;;;;;;;;;;;;24.23;52.25;98969.28;5131662;28;20023;-88
2021/07/25 05:33:48;;;;;;;1.63;0.77;;;;;;;24.48;48.96;98972.91;5113420;28;19915;-87
2021/07/25 05:36:13;;;;;;;0.50;0.50;;;;;;;25.12;50.08;98965.72;5130870;28;20076;-87
2021/07/25 05:38:39;;;;;;;0.77;0.77;;;;;;;25.02;46.74;98967.34;5112789;28;20087;-82
2021/07/25 05:41:04;;;;;;;1.35;1.17;;;;;;;24.47;47.57;98954.47;5130390;28;20024;-83
2021/07/25 05:43:30;;;;;;;0.95;0.82;;;;;;;25.49;45.82;98967.88;5112219;28;20023;-83
2021/07/25 05:45:55;;;;;;;16.98;2.63;;;;;;;26.51;43.53;98961.09;5112344;28;20031;-85
2021/07/25 05:48:20;;;;;;;1.77;0.95;;;;;;;26.83;42.70;98968.78;5111718;28;20031;-83
2021/07/25 05:50:46;;;;;;;0.95;0.95;;;;;;;27.39;39.93;98957.97;5112018;28;20024;-83
2021/07/25 05:53:11;;;;;;;0.50;0.50;;;;;;;28.60;39.62;98983.50;5111897;28;20023;-83
2021/07/25 05:55:37;;;;;;;0.45;0.35;;;;;;;29.32;37.97;98972.34;5112194;28;20028;-82
2021/07/25 05:58:03;;;;;;;1.33;0.82;;;;;;;30.24;36.27;98997.16;5111658;28;20411;-83
2021/07/25 06:00:28;;;;;;;0.75;0.75;;;;;;;30.37;35.78;98959.94;5111734;28;20025;-84
2021/07/25 06:02:56;;;;;;;0.32;0.32;;;;;;;30.92;34.11;98971.63;5111353;28;20027;-83
2021/07/25 06:05:22;;;;;;;1.00;0.90;;;;;;;31.45;33.32;98994.44;5111792;28;20023;-83
2021/07/25 06:07:48;;;;;;;0.60;0.60;;;;;;;32.37;32.62;98991.28;5109469;28;20034;-83
2021/07/25 06:10:14;;;;;;;6.40;1.05;;;;;;;33.11;31.69;98986.34;5091081;28;20032;-83
2021/07/25 06:12:40;;;;;;;0.98;0.98;;;;;;;34.30;29.85;98977.66;5109229;28;20031;-83
2021/07/25 06:15:06;;;;;;;1.48;1.38;;;;;;;35.18;28.51;98968.81;5090976;28;20106;-85
2021/07/25 06:17:32;;;;;;;0.55;0.55;;;;;;;35.95;27.39;98963.13;5087136;28;20446;-83
2021/07/25 06:19:57;;;;;;;0.60;0.60;;;;;;;36.80;25.78;98977.94;5088812;28;20031;-83
2021/07/25 06:22:23;;;;;;;1.58;0.57;;;;;;;36.65;24.93;98969.69;5087571;28;20039;-84
2021/07/25 06:24:48;;;;;;;0.35;0.32;;;;;;;37.40;24.64;98969.13;5087471;28;20020;-83
2021/07/25 06:27:14;;;;;;;0.65;0.60;;;;;;;37.50;24.41;98969.81;5087331;28;20412;-81
2021/07/25 06:29:39;;;;;;;1.30;0.57;;;;;;;37.66;25.19;98987.50;5073358;28;20067;-83
2021/07/25 06:32:07;;;;;;;0.45;0.30;;;;;;;37.76;24.36;98977.38;5073516;28;20179;-82
2021/07/25 06:34:33;;;;;;;0.93;0.85;;;;;;;39.04;23.02;98950.94;5075108;28;20048;-82
2021/07/25 06:36:58;;;;;;;0.80;0.80;;;;;;;39.35;23.04;98976.69;5073987;28;20078;-81
2021/07/25 06:39:24;;;;;;;0.52;0.52;;;;;;;39.57;22.48;98977.25;5073901;28;20407;-81
2021/07/25 06:41:49;;;;;;;0.47;0.47;;;;;;;40.48;21.78;98980.38;5073778;28;20480;-82
2021/07/25 06:44:15;;;;;;;0.77;0.50;;;;;;;40.19;21.46;98989.59;5074827;28;20428;-82
2021/07/25 06:46:40;;;;;;;0.32;0.32;;;;;;;41.01;21.30;98971.69;5073586;28;20395;-82
2021/07/25 06:49:06;;;;;;;0.93;0.63;;;;;;;41.96;19.91;98970.81;5075036;28;20029;-81
2021/07/25 06:51:31;;;;;;;0.83;0.70;;;;;;;42.57;19.21;98974.50;5074774;28;20087;-81
2021/07/25 06:53:57;;;;;;;0.80;0.80;;;;;;;42.62;19.42;98976.19;5074740;28;20024;-81
2021/07/25 06:56:23;;;;;;;1.50;0.90;;;;;;;41.85;19.21;98972.44;5074831;28;20031;-83
2021/07/25 06:58:48;;;;;;;2.07;0.83;;;;;;;42.68;19.99;98986.63;5073170;28;20032;-85
2021/07/25 07:01:13;;;;;;;1.33;0.93;;;;;;;43.28;18.73;98980.72;5073500;28;20035;-84
2021/07/25 07:03:39;;;;;;;0.30;0.30;;;;;;;41.39;20.09;98970.81;5074220;28;20031;-84
2021/07/25 07:06:08;;;;;;;0.50;0.50;;;;;;;41.55;20.26;98962.22;5074365;28;20032;-83
2021/07/25 07:08:34;;;;;;;0.55;0.55;;;;;;;41.63;20.84;98970.59;5074488;28;20027;-82
2021/07/25 07:10:59;;;;;;;0.20;0.20;;;;;;;41.78;18.98;98947.41;5073225;28;20032;-82
2021/07/25 07:13:25;;;;;;;0.23;0.23;;;;;;;42.25;19.01;98984.59;5074394;28;20032;-81
2021/07/25 07:15:51;;;;;;;0.60;0.60;;;;;;;43.30;19.00;98974.97;5073205;28;20033;-82
2021/07/25 07:18:18;;;;;;;0.47;0.40;;;;;;;42.83;18.30;98974.25;5072532;28;20060;-82
2021/07/25 07:20:44;;;;;;;0.47;0.47;;;;;;;42.85;18.06;98945.28;5072971;28;20029;-81
2021/07/25 07:23:14;;;;;;;2.90;0.73;;;;;;;42.79;18.08;98963.22;5072993;28;20031;-82
2021/07/25 07:25:44;;;;;;;1.10;0.57;;;;;;;43.21;18.45;98984.75;5072754;28;20257;-81
2021/07/25 07:28:11;;;;;;;0.50;0.50;;;;;;;43.55;18.06;98961.50;5074054;28;20036;-81
2021/07/25 07:30:38;;;;;;;0.40;0.40;;;;;;;43.83;18.17;98976.50;5072785;28;20063;-82
2021/07/25 07:33:09;;;;;;;0.28;0.28;;;;;;;44.31;17.47;98948.66;5072747;28;20032;-81
2021/07/25 07:35:36;;;;;;;2.40;1.20;;;;;;;43.38;16.86;98954.97;5073610;28;20025;-84
2021/07/25 07:38:01;;;;;;;2.20;0.90;;;;;;;40.65;19.57;98970.47;5072583;28;20035;-86
2021/07/25 07:40:27;;;;;;;0.40;0.40;;;;;;;40.59;21.76;98970.09;5071932;28;20032;-82
2021/07/25 07:42:52;;;;;;;1.07;0.30;;;;;;;40.51;19.40;98966.78;5072727;28;20566;-85
2021/07/25 07:45:18;;;;;;;0.80;0.80;;;;;;;41.07;20.47;98956.78;5072598;28;20143;-82
2021/07/25 07:47:48;;;;;;;1.60;0.60;;;;;;;40.98;19.69;98950.53;5072401;28;20032;-84
2021/07/25 07:50:15;;;;;;;13.32;0.98;;;;;;;42.24;18.93;98936.63;5072876;28;20485;-85
2021/07/25 07:52:41;;;;;;;0.40;0.40;;;;;;;40.33;18.94;98965.78;5072780;28;20059;-82
2021/07/25 07:55:07;;;;;;;1.10;1.03;;;;;;;42.27;18.52;98966.50;5073188;28;20534;-82
2021/07/25 07:57:32;;;;;;;0.90;0.87;;;;;;;43.14;17.93;98962.63;5072203;28;20468;-84
2021/07/25 07:59:58;;;;;;;0.13;0.13;;;;;;;42.26;16.97;98977.34;5072308;28;20039;-84
2021/07/25 08:02:24;;;;;;;0.43;0.30;;;;;;;41.77;18.30;98951.75;5070213;28;20102;-86
2021/07/25 08:04:49;;;;;;;0.30;0.30;;;;;;;41.79;17.65;98966.34;5070303;28;20033;-84
2021/07/25 08:07:14;;;;;;;0.73;0.60;;;;;;;41.35;18.15;98982.22;5070070;28;20055;-83
2021/07/25 08:09:40;;;;;;;3.43;1.23;;;;;;;40.93;19.58;98971.25;5070111;28;20120;-84
2021/07/25 08:12:06;;;;;;;1.13;0.93;;;;;;;40.82;20.57;98987.34;5072303;28;20464;-83
2021/07/25 08:14:33;;;;;;;7.80;0.63;;;;;;;40.59;20.08;98978.78;5071942;28;20035;-82
2021/07/25 08:16:58;;;;;;;0.47;0.47;;;;;;;39.94;20.53;98978.03;5071946;28;20052;-82
2021/07/25 08:19:24;;;;;;;0.43;0.43;;;;;;;38.62;22.22;98954.81;5071954;28;20496;-81
2021/07/25 08:21:50;;;;;;;0.30;0.30;;;;;;;35.44;23.71;98922.00;5073432;28;20488;-83
2021/07/25 08:24:15;;;;;;;0.65;0.65;;;;;;;33.39;27.91;98967.22;5071938;28;20025;-83
2021/07/25 08:26:41;;;;;;;0.82;0.82;;;;;;;31.32;30.13;98968.94;5071580;28;20090;-85
2021/07/25 08:29:07;;;;;;;1.42;0.73;;;;;;;30.69;31.13;98965.13;5072401;28;20025;-85
2021/07/25 08:31:32;;;;;;;0.40;0.40;;;;;;;30.31;34.20;98959.38;5072218;28;20037;-86
2021/07/25 08:33:58;;;;;;;2.17;0.88;;;;;;;30.14;33.80;98965.56;5071663;28;20024;-85
2021/07/25 08:36:23;;;;;;;0.82;0.63;;;;;;;29.11;35.38;98958.94;5071651;28;20454;-83
2021/07/25 08:38:49;;;;;;;1.67;0.80;;;;;;;29.06;35.11;98954.16;5072741;28;20020;-84
2021/07/25 08:41:21;;;;;;;1.00;0.77;;;;;;;28.96;37.34;98950.28;5072755;28;20117;-84
2021/07/25 08:43:47;;;;;;;3.20;0.43;;;;;;;28.41;36.53;98863.53;5072706;28;20086;-84
2021/07/25 08:46:18;;;;;;;0.35;0.35;;;;;;;28.98;39.24;98956.19;5071625;28;20385;-84
2021/07/25 08:48:46;;;;;;;0.80;0.73;;;;;;;29.47;36.56;98936.25;5071300;28;20035;-82
2021/07/25 08:51:19;;;;;;;9.20;0.77;;;;;;;29.70;36.16;98935.56;5071259;28;20494;-83
2021/07/25 08:53:58;;;;;;;0.55;0.52;;;;;;;29.34;35.22;98941.28;5071376;28;20024;-84
2021/07/25 08:56:35;;;;;;;1.90;0.57;;;;;;;29.32;35.62;98927.56;5071688;28;20503;-84
2021/07/25 08:59:03;;;;;;;0.32;0.32;;;;;;;29.26;38.96;98931.88;5072722;28;20051;-83
2021/07/25 09:01:37;;;;;;;1.17;0.57;;;;;;;29.30;32.87;98924.50;5072597;28;20025;-84
2021/07/25 09:04:03;;;;;;;0.80;0.50;;;;;;;28.94;33.02;98935.84;5071395;28;20514;-84
2021/07/25 09:06:39;;;;;;;5.07;0.68;;;;;;;29.14;34.75;98925.75;5071159;28;20029;-84
2021/07/25 09:09:05;;;;;;;0.63;0.63;;;;;;;28.67;34.80;98871.91;5071346;28;20484;-85
2021/07/25 09:11:31;;;;;;;0.93;0.85;;;;;;;29.09;34.09;98912.44;5072553;28;20039;-83
2021/07/25 09:13:58;;;;;;;1.63;0.93;;;;;;;29.24;34.73;98903.22;5071249;28;20032;-84
2021/07/25 09:16:30;;;;;;;1.58;0.98;;;;;;;29.23;34.47;98935.88;5075467;28;20052;-84
2021/07/25 09:18:55;;;;;;;0.60;0.60;;;;;;;28.82;34.96;98900.47;5093027;28;20359;-83
2021/07/25 09:21:49;;;;;;;0.40;0.35;;;;;;;29.00;36.72;98921.47;5092456;28;20032;-83
2021/07/25 09:24:20;;;;;;;0.65;0.65;;;;;;;29.21;36.10;98878.75;5074498;28;20032;-84
2021/07/25 09:27:05;;;;;;;0.73;0.73;;;;;;;29.58;36.10;98918.06;5092516;28;20054;-84
2021/07/25 09:29:34;;;;;;;0.63;0.63;;;;;;;29.20;34.71;98909.28;5074908;28;20024;-83
2021/07/25 09:32:14;;;;;;;1.73;1.30;;;;;;;29.37;34.29;98914.53;5092576;28;20363;-82
2021/07/25 09:34:49;;;;;;;9.50;1.75;;;;;;;29.25;34.46;98899.81;5074250;28;20031;-84
2021/07/25 09:37:20;;;;;;;2.95;1.52;;;;;;;29.00;36.19;98905.16;5074437;28;20036;-84
2021/07/25 09:39:54;;;;;;;1.77;1.42;;;;;;;29.21;35.38;98904.34;5074344;28;20058;-83
2021/07/25 09:42:29;;;;;;;1.95;1.45;;;;;;;28.95;34.92;98911.78;5091576;28;20415;-83
2021/07/25 09:44:59;;;;;;;11.18;5.07;;;;;;;29.07;34.50;98910.16;5074144;28;20031;-84
2021/07/25 09:47:37;;;;;;;2.13;0.90;;;;;;;28.80;35.13;98897.44;5092251;28;20038;-83
2021/07/25 09:50:07;;;;;;;5.57;1.80;;;;;;;29.05;36.10;98904.28;5074737;28;20036;-83
2021/07/25 09:52:37;;;;;;;1.67;1.52;;;;;;;29.28;35.87;98901.56;5074478;28;20028;-83
2021/07/25 09:55:05;;;;;;;7.40;3.63;;;;;;;29.21;36.18;98827.50;5092562;28;20468;-85
2021/07/25 09:57:32;;;;;;;7.22;2.83;;;;;;;29.77;33.38;98903.50;5092157;28;20024;-84
2021/07/25 10:00:09;;;;;;;10.00;1.27;;;;;;;29.38;33.90;98896.88;5074015;28;20024;-84
2021/07/25 10:02:41;;;;;;;12.88;1.45;;;;;;;29.26;34.82;98884.25;5074614;28;20070;-84
2021/07/25 10:05:19;;;;;;;1.33;0.82;;;;;;;29.38;34.11;98898.97;5078285;28;20096;-84
2021/07/25 10:07:46;;;;;;;1.63;1.38;;;;;;;29.75;35.80;98886.97;5077774;28;20031;-84
2021/07/25 10:10:18;;;;;;;1.63;1.27;;;;;;;29.14;35.80;98818.38;5077752;28;20024;-85
2021/07/25 10:12:45;;;;;;;0.95;0.95;;;;;;;29.46;33.62;98883.47;5077732;28;20039;-85
2021/07/25 10:15:12;;;;;;;2.78;1.85;;;;;;;29.45;34.01;98878.31;5077786;28;20031;-83
2021/07/25 10:17:40;;;;;;;2.63;1.67;;;;;;;29.41;33.54;98877.94;5095527;28;20051;-83
2021/07/25 10:20:08;;;;;;;6.15;3.70;;;;;;;29.53;33.68;98884.81;5077644;28;20070;-84
2021/07/25 10:22:35;;;;;;;1.35;1.35;;;;;;;29.27;34.87;98859.41;5077548;28;20032;-85
2021/07/25 10:25:05;;;;;;;3.70;3.30;;;;;;;29.31;33.91;98849.19;5077676;28;20059;-84
2021/07/25 10:27:33;;;;;;;0.63;0.63;;;;;;;29.73;34.23;98878.22;5095487;28;20027;-84
2021/07/25 10:30:09;;;;;;;0.70;0.70;;;;;;;29.53;31.25;98879.13;5077823;28;20537;-85
2021/07/25 10:32:37;;;;;;;15.43;1.17;;;;;;;29.62;31.67;98872.88;5095609;28;20410;-84
2021/07/25 10:35:06;;;;;;;1.20;0.77;;;;;;;29.42;32.46;98860.25;5095729;28;20023;-84
2021/07/25 10:37:32;;;;;;;0.50;0.50;;;;;;;29.50;32.97;98875.31;5095347;28;20116;-86
2021/07/25 10:40:00;;;;;;;1.17;1.02;;;;;;;29.54;34.39;98866.38;5077072;28;20028;-84
2021/07/25 10:42:29;;;;;;;3.60;0.43;;;;;;;29.82;33.31;98874.84;5077623;28;20051;-84
2021/07/25 10:44:55;;;;;;;2.47;1.85;;;;;;;29.64;31.79;98864.53;5095585;28;20024;-86
2021/07/25 10:47:24;;;;;;;1.35;0.93;;;;;;;29.51;33.73;98827.66;5077328;28;20031;-83
2021/07/25 10:50:09;;;;;;;0.93;0.63;;;;;;;29.88;32.61;98866.91;5077075;28;20032;-84
2021/07/25 10:52:52;;;;;;;1.30;1.20;;;;;;;29.54;32.43;98860.69;5077066;28;20484;-84
2021/07/25 10:55:47;;;;;;;0.63;0.63;;;;;;;29.48;32.24;98862.94;5077155;28;20058;-86
2021/07/25 10:58:16;;;;;;;1.33;0.63;;;;;;;29.42;33.17;98862.34;5060379;28;20038;-87
2021/07/25 11:00:52;;;;;;;1.60;1.27;;;;;;;29.45;32.58;98858.38;5076905;28;20028;-84
2021/07/25 11:03:30;;;;;;;1.77;1.25;;;;;;;29.57;30.71;98853.88;5077466;28;20043;-86
2021/07/25 11:06:09;;;;;;;0.93;0.93;;;;;;;29.42;31.32;98848.09;5095152;28;20077;-86
2021/07/25 11:08:43;;;;;;;0.82;0.40;;;;;;;29.29;30.55;98826.22;5077288;28;20111;-85
2021/07/25 11:11:34;;;;;;;1.95;1.42;;;;;;;29.41;30.60;98855.91;5076840;28;20483;-85
2021/07/25 11:14:02;;;;;;;1.05;1.02;;;;;;;29.41;30.52;98840.91;5076701;28;20505;-84
2021/07/25 11:16:28;;;;;;;1.70;1.45;;;;;;;29.38;30.87;98862.72;5094480;28;20059;-85
2021/07/25 11:18:54;;;;;;;0.68;0.68;;;;;;;29.42;31.40;98822.50;5095088;28;20028;-85
2021/07/25 11:21:53;;;;;;;1.17;0.73;;;;;;;29.59;30.18;98847.63;5076579;28;20032;-85
2021/07/25 11:24:22;;;;;;;1.20;1.13;;;;;;;29.27;32.48;98825.25;5061832;28;20032;-85
2021/07/25 11:26:52;;;;;;;0.77;0.77;;;;;;;29.57;33.61;98853.88;5094652;28;20063;-85
2021/07/25 11:29:39;;;;;;;1.05;0.80;;;;;;;29.57;31.45;98848.19;5077484;28;20024;-84
2021/07/25 11:32:33;;;;;;;0.50;0.50;;;;;;;29.52;32.69;98843.44;5076328;28;20126;-86
2021/07/25 11:35:06;;;;;;;0.93;0.93;;;;;;;29.27;31.27;98799.66;5076491;28;20028;-86
2021/07/25 11:37:40;;;;;;;0.90;0.85;;;;;;;29.22;30.64;98812.72;5076073;28;20086;-85
2021/07/25 11:40:07;;;;;;;0.40;0.40;;;;;;;29.22;31.74;98811.97;5076323;28;20035;-85
2021/07/25 11:42:34;;;;;;;0.50;0.50;;;;;;;29.45;30.92;98815.69;5094527;28;20028;-87
2021/07/25 11:45:06;;;;;;;1.02;1.02;;;;;;;29.19;31.80;98796.00;5076590;28;20024;-86
2021/07/25 11:47:33;;;;;;;2.17;0.70;;;;;;;29.39;33.11;98832.94;5076220;28;20075;-85
2021/07/25 11:49:58;;;;;;;3.38;0.95;;;;;;;29.46;30.21;98802.97;5076281;28;20028;-85
2021/07/25 11:52:27;;;;;;;3.05;1.70;;;;;;;29.62;31.90;98835.84;5075977;28;20036;-86
2021/07/25 11:54:53;;;;;;;1.33;0.90;;;;;;;29.53;30.52;98825.78;5094101;28;20055;-86
2021/07/25 11:57:29;;;;;;;0.35;0.35;;;;;;;29.36;31.26;98799.13;5093768;28;20032;-85
2021/07/25 12:00:01;;;;;;;0.35;0.35;;;;;;;29.62;31.86;98827.31;5076464;28;20031;-85
2021/07/25 12:02:31;;;;;;;1.08;1.08;;;;;;;29.72;32.35;98816.16;5076148;28;20028;-85
2021/07/25 12:04:57;;;;;;;3.67;0.55;;;;;;;29.54;32.02;98826.53;5075770;28;20512;-85
2021/07/25 12:07:40;;;;;;;1.45;0.43;;;;;;;29.68;30.83;98807.97;5075565;28;20065;-86
2021/07/25 12:10:05;;;;;;;10.52;1.17;;;;;;;29.62;31.23;98781.75;5076191;28;20058;-85
2021/07/25 12:12:36;;;;;;;0.30;0.30;;;;;;;29.73;33.57;98801.31;5075570;28;20028;-84
2021/07/25 12:15:04;;;;;;;1.02;1.00;;;;;;;29.81;33.17;98824.91;5093945;28;20436;-84
2021/07/25 12:17:38;;;;;;;1.13;0.90;;;;;;;29.84;32.99;98803.81;5075067;28;20109;-87
2021/07/25 12:20:12;;;;;;;0.47;0.43;;;;;;;30.00;32.33;98801.03;5076244;28;20094;-85
2021/07/25 12:23:06;;;;;;;0.93;0.93;;;;;;;29.98;30.79;98795.13;5093748;28;20024;-87
2021/07/25 12:25:37;;;;;;;1.08;1.00;;;;;;;29.96;31.10;98797.81;5093330;28;20027;-85
2021/07/25 12:28:09;;;;;;;1.35;0.88;;;;;;;30.03;32.08;98791.31;5075441;28;20028;-84
2021/07/25 12:30:43;;;;;;;4.72;0.73;;;;;;;30.11;34.65;98769.28;5093490;28;20120;-84
2021/07/25 12:33:09;;;;;;;0.80;0.80;;;;;;;30.13;31.21;98778.03;5093653;28;20024;-84
2021/07/25 12:35:35;;;;;;;1.85;1.55;;;;;;;29.95;31.25;98788.50;5074809;28;20032;-84
2021/07/25 12:38:07;;;;;;;8.38;0.82;;;;;;;29.70;32.41;98765.44;5075161;28;20044;-86
2021/07/25 12:40:45;;;;;;;0.75;0.75;;;;;;;29.63;31.49;98769.03;5093229;28;20035;-85
2021/07/25 12:43:16;;;;;;;1.42;1.30;;;;;;;29.73;30.82;98783.47;5075380;28;20028;-84
2021/07/25 12:45:43;;;;;;;0.77;0.65;;;;;;;29.63;32.02;98788.97;5092497;28;20024;-84
2021/07/25 12:48:23;;;;;;;0.75;0.75;;;;;;;29.41;31.41;98752.66;5074918;28;20032;-84
2021/07/25 12:54:00;;;;;;;0.63;0.52;;;;;;;29.64;32.14;98786.88;5092985;28;20123;-82
2021/07/25 12:56:31;;;;;;;1.02;0.80;;;;;;;29.65;34.11;98779.88;5074949;28;20028;-85
2021/07/25 12:59:05;;;;;;;0.45;0.45;;;;;;;29.68;32.20;98759.53;5074897;28;20039;-84
2021/07/25 13:04:24;;;;;;;0.50;0.50;;;;;;;29.72;31.66;98771.31;5092966;28;20039;-84
2021/07/25 13:06:49;;;;;;;0.40;0.40;;;;;;;29.54;30.74;98752.47;5075096;28;20399;-85
2021/07/25 13:09:20;;;;;;;1.42;0.90;;;;;;;29.81;30.96;98770.78;5092875;28;20032;-86
2021/07/25 13:11:49;;;;;;;0.57;0.57;;;;;;;29.86;31.82;98769.06;5074746;28;20437;-85
2021/07/25 13:14:24;;;;;;;1.20;1.08;;;;;;;29.71;30.52;98735.63;5074480;28;20024;-86
2021/07/25 13:16:49;;;;;;;1.42;1.33;;;;;;;29.76;31.26;98739.63;5071671;28;20058;-87
2021/07/25 13:19:16;;;;;;;1.00;0.93;;;;;;;29.51;31.55;98719.47;5071352;28;20033;-86
2021/07/25 13:21:42;;;;;;;0.40;0.40;;;;;;;29.69;33.87;98723.28;5071563;28;20040;-86
2021/07/25 13:24:10;;;;;;;0.82;0.63;;;;;;;29.94;30.15;98752.78;5071707;28;20020;-86
2021/07/25 13:26:36;;;;;;;1.17;1.00;;;;;;;30.02;30.98;98755.63;5072662;28;20048;-86
2021/07/25 13:29:01;;;;;;;0.73;0.50;;;;;;;29.81;30.08;98727.28;5071640;28;20035;-85
2021/07/25 13:31:26;;;;;;;2.78;0.40;;;;;;;29.64;30.78;98702.22;5072608;28;20112;-88
2021/07/25 13:33:52;;;;;;;2.28;0.55;;;;;;;29.70;30.82;98702.03;5072736;28;20468;-86
2021/07/25 13:36:18;;;;;;;0.60;0.57;;;;;;;29.88;30.91;98727.28;5072471;28;20035;-87
2021/07/25 13:38:44;;;;;;;2.20;0.95;;;;;;;29.56;31.23;98712.06;5073158;28;20101;-88
2021/07/25 13:41:10;;;;;;;0.85;0.85;;;;;;;29.64;31.36;98716.44;5075353;28;20025;-86
2021/07/25 13:43:41;;;;;;;0.32;0.32;;;;;;;29.52;31.86;98686.81;5076569;28;20028;-86
2021/07/25 13:46:20;;;;;;;0.73;0.73;;;;;;;29.82;31.04;98720.25;5076876;28;20107;-87
2021/07/25 13:48:47;;;;;;;0.25;0.25;;;;;;;30.09;31.31;98749.16;5092294;28;20036;-86
2021/07/25 13:51:14;;;;;;;0.43;0.32;;;;;;;30.09;30.04;98743.44;5075232;28;20105;-86
2021/07/25 13:53:41;;;;;;;1.55;0.68;;;;;;;29.93;30.19;98739.84;5075066;28;20032;-86
2021/07/25 13:56:15;;;;;;;0.63;0.52;;;;;;;29.74;30.22;98719.47;5075071;28;20032;-86
2021/07/25 13:58:40;;;;;;;0.60;0.60;;;;;;;29.91;30.59;98745.34;5075425;28;20067;-86
2021/07/25 14:01:06;;;;;;;0.43;0.40;;;;;;;29.54;31.05;98690.59;5075182;28;20025;-85
2021/07/25 14:03:31;;;;;;;0.52;0.52;;;;;;;29.80;31.38;98715.13;5076242;28;20025;-86
2021/07/25 14:05:57;;;;;;;1.15;0.95;;;;;;;29.95;30.33;98725.03;5076245;28;20021;-86
2021/07/25 14:08:22;;;;;;;8.93;1.13;;;;;;;30.06;30.25;98738.91;5075860;28;20034;-85
2021/07/25 14:10:48;;;;;;;1.23;1.13;;;;;;;29.71;30.10;98695.75;5076022;28;20032;-86
2021/07/25 14:13:13;;;;;;;4.60;0.80;;;;;;;29.86;30.53;98744.19;5074605;28;20066;-85
2021/07/25 14:15:39;;;;;;;0.88;0.88;;;;;;;29.90;30.88;98730.31;5075868;28;20395;-85
2021/07/25 14:18:05;;;;;;;1.17;0.43;;;;;;;30.02;31.58;98727.88;5074063;28;20055;-84
2021/07/25 14:20:35;;;;;;;0.30;0.30;;;;;;;30.04;31.19;98738.72;5075675;28;20029;-85
2021/07/25 14:23:04;;;;;;;2.20;0.98;;;;;;;29.87;31.61;98705.81;5074003;28;20039;-85
2021/07/25 14:25:30;;;;;;;2.47;0.98;;;;;;;30.01;30.55;98732.06;5075739;28;20063;-84
2021/07/25 14:27:56;;;;;;;1.05;0.65;;;;;;;29.71;30.56;98727.09;5075194;28;20028;-85
2021/07/25 14:30:22;;;;;;;1.25;1.02;;;;;;;29.84;31.32;98738.28;5074417;28;20031;-85
2021/07/25 14:32:48;;;;;;;0.77;0.77;;;;;;;29.95;29.98;98740.06;5091628;28;20028;-84
2021/07/25 14:35:14;;;;;;;0.60;0.60;;;;;;;29.91;30.15;98740.41;5075520;28;20043;-85
2021/07/25 14:37:39;;;;;;;3.28;1.13;;;;;;;29.76;31.15;98717.59;5074102;28;20028;-85
2021/07/25 14:40:12;;;;;;;0.95;0.85;;;;;;;29.96;31.01;98729.41;5075573;28;20086;-85
2021/07/25 14:42:38;;;;;;;0.55;0.55;;;;;;;29.68;30.89;98711.13;5074207;28;20479;-84
2021/07/25 14:45:05;;;;;;;1.17;1.02;;;;;;;29.57;31.31;98708.66;5074026;28;20034;-84
2021/07/25 14:47:34;;;;;;;;;;;;;;;29.81;31.38;98728.03;5074344;28;20029;-83
2021/07/25 14:50:00;;;;;;;1.40;0.70;;;;;;;29.69;31.20;98715.50;5073605;28;19915;-85
2021/07/25 14:52:26;;;;;;;0.95;0.82;;;;;;;29.71;31.79;98714.94;5073776;28;20078;-85
2021/07/25 14:54:51;;;;;;;6.75;1.10;;;;;;;29.73;32.30;98707.34;5073657;28;20036;-85
2021/07/25 14:57:17;;;;;;;0.93;0.65;;;;;;;29.77;31.75;98724.81;5073773;28;20025;-87
2021/07/25 14:59:42;;;;;;;1.23;1.13;;;;;;;29.81;31.84;98710.19;5073759;28;20086;-85
2021/07/25 15:02:08;;;;;;;0.30;0.30;;;;;;;29.95;31.07;98719.34;5090715;28;20016;-86
2021/07/25 15:04:33;;;;;;;1.75;0.60;;;;;;;29.58;31.04;98698.78;5073982;28;20032;-87
2021/07/25 15:06:59;;;;;;;0.68;0.68;;;;;;;29.53;30.50;98700.50;5074016;28;20451;-85
2021/07/25 15:09:25;;;;;;;0.75;0.75;;;;;;;29.57;30.65;98691.56;5073606;28;20037;-85
2021/07/25 15:11:52;;;;;;;6.32;1.00;;;;;;;29.60;30.96;98692.53;5090936;28;20025;-85
2021/07/25 15:14:18;;;;;;;0.47;0.47;;;;;;;29.59;30.60;98691.00;5074886;28;20024;-86
2021/07/25 15:16:43;;;;;;;1.08;0.73;;;;;;;29.67;30.83;98712.44;5073328;28;20569;-86
2021/07/25 15:19:09;;;;;;;0.50;0.50;;;;;;;29.44;30.75;98680.34;5075337;28;20028;-86
2021/07/25 15:21:34;;;;;;;0.17;0.17;;;;;;;29.48;30.03;98680.72;5074719;28;20086;-87
2021/07/25 15:24:01;;;;;;;0.77;0.77;;;;;;;29.67;30.85;98708.84;5074946;28;20159;-86
2021/07/25 15:26:27;;;;;;;0.82;0.82;;;;;;;29.70;30.84;98731.25;5073485;28;20040;-88
2021/07/25 15:28:52;;;;;;;14.68;0.70;;;;;;;29.54;30.84;98701.22;5073605;28;20024;-91
2021/07/25 15:31:19;;;;;;;0.73;0.73;;;;;;;29.39;30.54;98684.13;5074810;28;20071;-88
2021/07/25 15:33:48;;;;;;;1.75;0.75;;;;;;;29.65;30.00;98726.53;5073347;28;20115;-89
2021/07/25 15:36:14;;;;;;;2.92;0.68;;;;;;;29.28;30.95;98665.31;5074575;28;20037;-88
2021/07/25 15:38:41;;;;;;;1.85;0.80;;;;;;;29.26;31.04;98672.88;5073379;28;20024;-88
2021/07/25 15:41:06;;;;;;;2.00;0.25;;;;;;;29.54;30.34;98724.00;5073014;28;20028;-88
2021/07/25 15:43:37;;;;;;;2.25;1.08;;;;;;;29.47;30.62;98702.00;5073204;28;20028;-89
2021/07/25 15:46:07;;;;;;;1.13;1.05;;;;;;;29.38;30.84;98682.63;5074422;28;20029;-87
2021/07/25 15:48:33;;;;;;;0.90;0.90;;;;;;;29.42;30.50;98691.53;5074536;28;20459;-87
2021/07/25 15:50:58;;;;;;;0.30;0.30;;;;;;;29.47;30.46;98724.78;5073394;28;20021;-88
2021/07/25 15:53:24;;;;;;;6.13;0.80;;;;;;;29.53;30.10;98731.81;5074497;28;20499;-88
2021/07/25 15:55:49;;;;;;;1.17;1.10;;;;;;;29.46;31.06;98723.25;5073184;28;20024;-88
2021/07/25 15:58:15;;;;;;;1.45;0.57;;;;;;;29.34;30.66;98705.78;5073835;28;20040;-87
2021/07/25 16:00:40;;;;;;;0.75;0.57;;;;;;;29.43;30.04;98724.38;5071989;28;20388;-86
2021/07/25 16:03:06;;;;;;;0.50;0.50;;;;;;;29.32;29.97;98704.78;5072682;28;20115;-86
2021/07/25 16:05:31;;;;;;;1.65;0.38;;;;;;;28.93;30.59;98664.09;5073744;28;20028;-86
2021/07/25 16:07:57;;;;;;;1.42;0.90;;;;;;;29.33;30.69;98703.47;5072920;28;20121;-87
2021/07/25 16:10:23;;;;;;;0.45;0.45;;;;;;;29.22;30.48;98693.19;5074024;28;20035;-86
2021/07/25 16:12:48;;;;;;;0.68;0.65;;;;;;;29.39;30.00;98733.31;5072284;28;20476;-87
2021/07/25 16:15:15;;;;;;;0.60;0.60;;;;;;;29.29;30.19;98720.91;5072144;28;20032;-86
2021/07/25 16:17:41;;;;;;;5.10;0.83;;;;;;;29.29;31.41;98740.84;5087566;28;20079;-86
2021/07/25 16:20:07;;;;;;;3.60;0.88;;;;;;;29.32;30.82;98730.41;5094152;28;20035;-85
2021/07/25 16:22:32;;;;;;;0.80;0.38;;;;;;;29.21;30.76;98737.19;5075656;28;20028;-86
2021/07/25 16:24:58;;;;;;;0.38;0.38;;;;;;;29.11;30.50;98717.06;5093827;28;20026;-86
2021/07/25 16:27:23;;;;;;;0.52;0.52;;;;;;;29.16;31.49;98718.22;5075744;28;20067;-86
2021/07/25 16:29:49;;;;;;;0.60;0.60;;;;;;;29.06;31.13;98737.91;5075621;28;20060;-87
2021/07/25 16:32:14;;;;;;;1.02;0.38;;;;;;;29.08;31.37;98725.97;5094319;28;20027;-87
2021/07/25 16:34:40;;;;;;;27.08;1.05;;;;;;;29.00;31.63;98725.94;5075772;28;20065;-88
2021/07/25 16:37:06;;;;;;;0.32;0.32;;;;;;;28.99;31.58;98724.44;5093639;28;20024;-88
2021/07/25 16:39:31;;;;;;;0.60;0.60;;;;;;;28.97;32.50;98726.31;5075773;28;20412;-88
2021/07/25 16:41:57;;;;;;;0.30;0.30;;;;;;;28.94;33.32;98724.56;5093584;28;20028;-87
2021/07/25 16:44:22;;;;;;;14.02;1.08;;;;;;;28.85;32.83;98731.56;5076023;28;20032;-87
2021/07/25 16:46:48;;;;;;;0.73;0.73;;;;;;;28.71;33.22;98727.28;5093638;28;20471;-88
2021/07/25 16:49:13;;;;;;;0.40;0.40;;;;;;;28.54;33.50;98721.31;5093716;28;20088;-88
2021/07/25 16:51:39;;;;;;;0.95;0.85;;;;;;;28.63;34.39;98735.03;5075498;28;20535;-87
2021/07/25 16:54:04;;;;;;;1.30;1.15;;;;;;;28.62;34.92;98737.13;5093383;28;20028;-86
2021/07/25 16:56:29;;;;;;;0.68;0.52;;;;;;;28.55;34.47;98739.91;5075244;28;20030;-87
2021/07/25 16:58:55;;;;;;;0.50;0.50;;;;;;;28.43;35.23;98741.53;5093304;28;20111;-87
2021/07/25 17:01:20;;;;;;;1.02;1.02;;;;;;;28.26;35.29;98720.03;5075811;28;20020;-87
2021/07/25 17:03:46;;;;;;;0.57;0.57;;;;;;;28.22;35.30;98725.28;5093500;28;20032;-87